sensor_id;sensor_type;location;lat;lon;timestamp;temperature;humidity
57058;DHT22;55017;52.848;6.748;2022-09-02T00:01:17;14.70;99.90
57058;DHT22;55017;52.848;6.748;2022-09-02T00:03:45;14.60;99.90
57058;DHT22;55017;52.848;6.748;2022-09-02T00:06:11;14.60;99.90
57058;DHT22;55017;52.848;6.748;2022-09-02T00:08:38;14.50;99.90
57058;DHT22;55017;52.848;6.748;2022-09-02T00:11:06;14.50;99.90
57058;DHT22;55017;52.848;6.748;2022-09-02T00:13:34;14.40;99.90
57058;DHT22;55017;52.848;6.748;2022-09-02T00:16:01;14.40;99.90
57058;DHT22;55017;52.848;6.748;2022-09-02T00:18:27;14.40;99.90
57058;DHT22;55017;52.848;6.748;2022-09-02T00:20:53;14.40;99.90
57058;DHT22;55017;52.848;6.748;2022-09-02T00:23:19;14.40;99.90
57058;DHT22;55017;52.848;6.748;2022-09-02T00:25:45;14.50;99.90
57058;DHT22;55017;52.848;6.748;2022-09-02T00:28:12;14.40;99.90
57058;DHT22;55017;52.848;6.748;2022-09-02T00:30:39;14.40;99.90
57058;DHT22;55017;52.848;6.748;2022-09-02T00:33:06;14.30;99.90
57058;DHT22;55017;52.848;6.748;2022-09-02T00:35:32;14.20;99.90
57058;DHT22;55017;52.848;6.748;2022-09-02T00:37:58;14.20;99.90
57058;DHT22;55017;52.848;6.748;2022-09-02T00:40:24;14.20;99.90
57058;DHT22;55017;52.848;6.748;2022-09-02T00:42:51;14.20;99.90
57058;DHT22;55017;52.848;6.748;2022-09-02T00:45:17;14.10;99.90
57058;DHT22;55017;52.848;6.748;2022-09-02T00:47:44;14.10;99.90
57058;DHT22;55017;52.848;6.748;2022-09-02T00:50:13;14.10;99.90
57058;DHT22;55017;52.848;6.748;2022-09-02T00:52:45;14.10;99.90
57058;DHT22;55017;52.848;6.748;2022-09-02T00:55:15;14.10;99.90
57058;DHT22;55017;52.848;6.748;2022-09-02T00:57:46;14.10;99.90
57058;DHT22;55017;52.848;6.748;2022-09-02T01:00:17;14.10;99.90
57058;DHT22;55017;52.848;6.748;2022-09-02T01:02:51;14.10;99.90
57058;DHT22;55017;52.848;6.748;2022-09-02T01:05:18;14.00;99.90
57058;DHT22;55017;52.848;6.748;2022-09-02T01:07:45;14.10;99.90
57058;DHT22;55017;52.848;6.748;2022-09-02T01:10:17;14.10;99.90
57058;DHT22;55017;52.848;6.748;2022-09-02T01:12:43;14.00;99.90
57058;DHT22;55017;52.848;6.748;2022-09-02T01:15:10;14.00;99.90
57058;DHT22;55017;52.848;6.748;2022-09-02T01:17:42;14.10;99.90
57058;DHT22;55017;52.848;6.748;2022-09-02T01:20:13;14.10;99.90
57058;DHT22;55017;52.848;6.748;2022-09-02T01:22:40;14.10;99.90
57058;DHT22;55017;52.848;6.748;2022-09-02T01:25:16;14.00;99.90
57058;DHT22;55017;52.848;6.748;2022-09-02T01:27:42;14.00;99.90
57058;DHT22;55017;52.848;6.748;2022-09-02T01:30:12;14.00;99.90
57058;DHT22;55017;52.848;6.748;2022-09-02T01:32:39;14.10;99.90
57058;DHT22;55017;52.848;6.748;2022-09-02T01:35:05;14.10;99.90
57058;DHT22;55017;52.848;6.748;2022-09-02T01:37:31;14.00;99.90
57058;DHT22;55017;52.848;6.748;2022-09-02T01:39:57;14.00;99.90
57058;DHT22;55017;52.848;6.748;2022-09-02T01:42:23;14.10;99.90
57058;DHT22;55017;52.848;6.748;2022-09-02T01:44:49;14.10;99.90
57058;DHT22;55017;52.848;6.748;2022-09-02T01:47:22;14.00;99.90
57058;DHT22;55017;52.848;6.748;2022-09-02T01:49:49;14.00;99.90
57058;DHT22;55017;52.848;6.748;2022-09-02T01:52:15;14.00;99.90
57058;DHT22;55017;52.848;6.748;2022-09-02T01:54:41;14.00;99.90
57058;DHT22;55017;52.848;6.748;2022-09-02T01:57:07;14.00;99.90
57058;DHT22;55017;52.848;6.748;2022-09-02T01:59:32;14.00;99.90
57058;DHT22;55017;52.848;6.748;2022-09-02T02:01:58;14.00;99.90
57058;DHT22;55017;52.848;6.748;2022-09-02T02:04:24;14.00;99.90
57058;DHT22;55017;52.848;6.748;2022-09-02T02:06:50;14.00;99.90
57058;DHT22;55017;52.848;6.748;2022-09-02T02:09:17;14.00;99.90
57058;DHT22;55017;52.848;6.748;2022-09-02T02:11:44;14.00;99.90
57058;DHT22;55017;52.848;6.748;2022-09-02T02:14:10;13.90;99.90
57058;DHT22;55017;52.848;6.748;2022-09-02T02:16:35;13.80;99.90
57058;DHT22;55017;52.848;6.748;2022-09-02T02:19:02;13.80;99.90
57058;DHT22;55017;52.848;6.748;2022-09-02T02:21:29;13.80;99.90
57058;DHT22;55017;52.848;6.748;2022-09-02T02:23:56;13.70;99.90
57058;DHT22;55017;52.848;6.748;2022-09-02T02:26:22;13.80;99.90
57058;DHT22;55017;52.848;6.748;2022-09-02T02:28:48;13.70;99.90
57058;DHT22;55017;52.848;6.748;2022-09-02T02:31:14;13.70;99.90
57058;DHT22;55017;52.848;6.748;2022-09-02T02:33:39;13.60;99.90
57058;DHT22;55017;52.848;6.748;2022-09-02T02:36:06;13.60;99.90
57058;DHT22;55017;52.848;6.748;2022-09-02T02:38:33;13.60;99.90
57058;DHT22;55017;52.848;6.748;2022-09-02T02:40:59;13.60;99.90
57058;DHT22;55017;52.848;6.748;2022-09-02T02:43:26;13.50;99.90
57058;DHT22;55017;52.848;6.748;2022-09-02T02:45:52;13.50;99.90
57058;DHT22;55017;52.848;6.748;2022-09-02T02:48:20;13.60;99.90
57058;DHT22;55017;52.848;6.748;2022-09-02T02:50:45;13.50;99.90
57058;DHT22;55017;52.848;6.748;2022-09-02T02:53:11;13.50;99.90
57058;DHT22;55017;52.848;6.748;2022-09-02T02:55:37;13.30;99.90
57058;DHT22;55017;52.848;6.748;2022-09-02T02:58:04;13.40;99.90
57058;DHT22;55017;52.848;6.748;2022-09-02T03:00:31;13.30;99.90
57058;DHT22;55017;52.848;6.748;2022-09-02T03:03:01;13.30;99.90
57058;DHT22;55017;52.848;6.748;2022-09-02T03:05:27;13.20;99.90
57058;DHT22;55017;52.848;6.748;2022-09-02T03:07:53;13.20;99.90
57058;DHT22;55017;52.848;6.748;2022-09-02T03:10:21;13.20;99.90
57058;DHT22;55017;52.848;6.748;2022-09-02T03:12:47;13.30;99.90
57058;DHT22;55017;52.848;6.748;2022-09-02T03:15:15;13.20;99.90
57058;DHT22;55017;52.848;6.748;2022-09-02T03:17:46;13.20;99.90
57058;DHT22;55017;52.848;6.748;2022-09-02T03:20:13;13.20;99.90
57058;DHT22;55017;52.848;6.748;2022-09-02T03:22:44;13.10;99.90
57058;DHT22;55017;52.848;6.748;2022-09-02T03:25:11;13.20;99.90
57058;DHT22;55017;52.848;6.748;2022-09-02T03:27:38;13.10;99.90
57058;DHT22;55017;52.848;6.748;2022-09-02T03:30:10;13.10;99.90
57058;DHT22;55017;52.848;6.748;2022-09-02T03:32:36;13.10;99.90
57058;DHT22;55017;52.848;6.748;2022-09-02T03:35:04;13.20;99.90
57058;DHT22;55017;52.848;6.748;2022-09-02T03:37:32;13.10;99.90
57058;DHT22;55017;52.848;6.748;2022-09-02T03:39:57;13.10;99.90
57058;DHT22;55017;52.848;6.748;2022-09-02T03:42:23;13.00;99.90
57058;DHT22;55017;52.848;6.748;2022-09-02T03:44:48;13.00;99.90
57058;DHT22;55017;52.848;6.748;2022-09-02T03:47:14;13.00;99.90
57058;DHT22;55017;52.848;6.748;2022-09-02T03:49:42;13.00;99.90
57058;DHT22;55017;52.848;6.748;2022-09-02T03:52:07;12.90;99.90
57058;DHT22;55017;52.848;6.748;2022-09-02T03:54:33;12.90;99.90
57058;DHT22;55017;52.848;6.748;2022-09-02T03:56:58;13.00;99.90
57058;DHT22;55017;52.848;6.748;2022-09-02T03:59:24;12.90;99.90
57058;DHT22;55017;52.848;6.748;2022-09-02T04:01:50;12.80;99.90
57058;DHT22;55017;52.848;6.748;2022-09-02T04:04:17;12.80;99.90
57058;DHT22;55017;52.848;6.748;2022-09-02T04:06:43;12.80;99.90
57058;DHT22;55017;52.848;6.748;2022-09-02T04:09:09;12.80;99.90
57058;DHT22;55017;52.848;6.748;2022-09-02T04:11:34;12.70;99.90
57058;DHT22;55017;52.848;6.748;2022-09-02T04:14:01;12.70;99.90
57058;DHT22;55017;52.848;6.748;2022-09-02T04:16:27;12.70;99.90
57058;DHT22;55017;52.848;6.748;2022-09-02T04:18:56;12.80;99.90
57058;DHT22;55017;52.848;6.748;2022-09-02T04:21:23;12.80;99.90
57058;DHT22;55017;52.848;6.748;2022-09-02T04:23:49;12.80;99.90
57058;DHT22;55017;52.848;6.748;2022-09-02T04:26:18;12.90;99.90
57058;DHT22;55017;52.848;6.748;2022-09-02T04:28:44;13.00;99.90
57058;DHT22;55017;52.848;6.748;2022-09-02T04:31:12;13.00;99.90
57058;DHT22;55017;52.848;6.748;2022-09-02T04:33:38;13.00;99.90
57058;DHT22;55017;52.848;6.748;2022-09-02T04:36:06;13.00;99.90
57058;DHT22;55017;52.848;6.748;2022-09-02T04:38:32;13.00;99.90
57058;DHT22;55017;52.848;6.748;2022-09-02T04:40:58;13.00;99.90
57058;DHT22;55017;52.848;6.748;2022-09-02T04:43:23;13.00;99.90
57058;DHT22;55017;52.848;6.748;2022-09-02T04:45:50;13.00;99.90
57058;DHT22;55017;52.848;6.748;2022-09-02T04:48:17;13.00;99.90
57058;DHT22;55017;52.848;6.748;2022-09-02T04:50:44;13.00;99.90
57058;DHT22;55017;52.848;6.748;2022-09-02T04:53:10;13.00;99.90
57058;DHT22;55017;52.848;6.748;2022-09-02T04:55:39;13.00;99.90
57058;DHT22;55017;52.848;6.748;2022-09-02T04:58:05;13.00;99.90
57058;DHT22;55017;52.848;6.748;2022-09-02T05:00:31;13.00;99.90
57058;DHT22;55017;52.848;6.748;2022-09-02T05:02:57;12.80;99.90
57058;DHT22;55017;52.848;6.748;2022-09-02T05:05:22;13.00;99.90
57058;DHT22;55017;52.848;6.748;2022-09-02T05:07:48;13.10;99.90
57058;DHT22;55017;52.848;6.748;2022-09-02T05:10:14;13.10;99.90
57058;DHT22;55017;52.848;6.748;2022-09-02T05:12:41;13.10;99.90
57058;DHT22;55017;52.848;6.748;2022-09-02T05:15:07;13.10;99.90
57058;DHT22;55017;52.848;6.748;2022-09-02T05:17:34;13.10;99.90
57058;DHT22;55017;52.848;6.748;2022-09-02T05:20:02;13.20;99.90
57058;DHT22;55017;52.848;6.748;2022-09-02T05:22:28;13.30;99.90
57058;DHT22;55017;52.848;6.748;2022-09-02T05:24:55;13.40;99.90
57058;DHT22;55017;52.848;6.748;2022-09-02T05:27:21;13.40;99.90
57058;DHT22;55017;52.848;6.748;2022-09-02T05:29:48;13.40;99.90
57058;DHT22;55017;52.848;6.748;2022-09-02T05:32:14;13.50;99.90
57058;DHT22;55017;52.848;6.748;2022-09-02T05:34:40;13.50;99.90
57058;DHT22;55017;52.848;6.748;2022-09-02T05:37:05;13.50;99.90
57058;DHT22;55017;52.848;6.748;2022-09-02T05:39:32;13.60;99.90
57058;DHT22;55017;52.848;6.748;2022-09-02T05:41:57;13.70;99.90
57058;DHT22;55017;52.848;6.748;2022-09-02T05:44:23;13.70;99.90
57058;DHT22;55017;52.848;6.748;2022-09-02T05:46:49;13.80;99.90
57058;DHT22;55017;52.848;6.748;2022-09-02T05:49:14;13.80;99.90
57058;DHT22;55017;52.848;6.748;2022-09-02T05:51:50;13.90;99.90
57058;DHT22;55017;52.848;6.748;2022-09-02T05:54:22;14.00;99.90
57058;DHT22;55017;52.848;6.748;2022-09-02T05:56:51;14.10;99.90
57058;DHT22;55017;52.848;6.748;2022-09-02T05:59:18;14.20;99.90
57058;DHT22;55017;52.848;6.748;2022-09-02T06:01:45;14.20;99.90
57058;DHT22;55017;52.848;6.748;2022-09-02T06:04:11;14.30;99.90
57058;DHT22;55017;52.848;6.748;2022-09-02T06:06:37;14.40;99.90
57058;DHT22;55017;52.848;6.748;2022-09-02T06:09:07;14.50;99.90
57058;DHT22;55017;52.848;6.748;2022-09-02T06:11:38;14.60;99.90
57058;DHT22;55017;52.848;6.748;2022-09-02T06:14:05;14.70;99.90
57058;DHT22;55017;52.848;6.748;2022-09-02T06:16:33;14.70;99.90
57058;DHT22;55017;52.848;6.748;2022-09-02T06:18:59;14.80;99.90
57058;DHT22;55017;52.848;6.748;2022-09-02T06:21:28;14.80;99.90
57058;DHT22;55017;52.848;6.748;2022-09-02T06:23:54;14.90;99.90
57058;DHT22;55017;52.848;6.748;2022-09-02T06:26:19;15.00;99.90
57058;DHT22;55017;52.848;6.748;2022-09-02T06:28:45;15.00;99.90
57058;DHT22;55017;52.848;6.748;2022-09-02T06:31:17;15.20;99.90
57058;DHT22;55017;52.848;6.748;2022-09-02T06:33:44;15.20;99.90
57058;DHT22;55017;52.848;6.748;2022-09-02T06:36:13;15.40;99.90
57058;DHT22;55017;52.848;6.748;2022-09-02T06:38:42;15.40;99.90
57058;DHT22;55017;52.848;6.748;2022-09-02T06:41:12;15.50;99.90
57058;DHT22;55017;52.848;6.748;2022-09-02T06:43:38;15.50;99.90
57058;DHT22;55017;52.848;6.748;2022-09-02T06:46:05;15.50;99.90
57058;DHT22;55017;52.848;6.748;2022-09-02T06:48:31;15.70;99.90
57058;DHT22;55017;52.848;6.748;2022-09-02T06:50:56;15.80;99.90
57058;DHT22;55017;52.848;6.748;2022-09-02T06:53:22;15.90;99.90
57058;DHT22;55017;52.848;6.748;2022-09-02T06:55:49;16.00;99.90
57058;DHT22;55017;52.848;6.748;2022-09-02T06:58:15;16.10;99.90
57058;DHT22;55017;52.848;6.748;2022-09-02T07:00:42;16.20;99.90
57058;DHT22;55017;52.848;6.748;2022-09-02T07:03:08;16.30;99.90
57058;DHT22;55017;52.848;6.748;2022-09-02T07:06:05;16.50;99.90
57058;DHT22;55017;52.848;6.748;2022-09-02T07:08:36;16.60;99.90
57058;DHT22;55017;52.848;6.748;2022-09-02T07:11:03;16.70;99.90
57058;DHT22;55017;52.848;6.748;2022-09-02T07:13:30;16.80;99.90
57058;DHT22;55017;52.848;6.748;2022-09-02T07:15:56;17.00;99.90
57058;DHT22;55017;52.848;6.748;2022-09-02T07:18:21;17.10;99.90
57058;DHT22;55017;52.848;6.748;2022-09-02T07:20:47;17.20;99.90
57058;DHT22;55017;52.848;6.748;2022-09-02T07:23:14;17.40;99.90
57058;DHT22;55017;52.848;6.748;2022-09-02T07:25:40;17.50;99.90
57058;DHT22;55017;52.848;6.748;2022-09-02T07:28:07;17.70;99.90
57058;DHT22;55017;52.848;6.748;2022-09-02T07:30:33;17.80;99.90
57058;DHT22;55017;52.848;6.748;2022-09-02T07:32:59;18.00;99.90
57058;DHT22;55017;52.848;6.748;2022-09-02T07:35:25;18.10;99.90
57058;DHT22;55017;52.848;6.748;2022-09-02T07:37:51;18.20;99.90
57058;DHT22;55017;52.848;6.748;2022-09-02T07:40:17;18.40;99.70
57058;DHT22;55017;52.848;6.748;2022-09-02T07:42:42;18.50;99.30
57058;DHT22;55017;52.848;6.748;2022-09-02T07:45:10;18.70;99.30
57058;DHT22;55017;52.848;6.748;2022-09-02T07:47:35;18.80;97.70
57058;DHT22;55017;52.848;6.748;2022-09-02T07:50:01;19.00;97.30
57058;DHT22;55017;52.848;6.748;2022-09-02T07:52:27;19.00;96.40
57058;DHT22;55017;52.848;6.748;2022-09-02T07:54:54;19.20;95.50
57058;DHT22;55017;52.848;6.748;2022-09-02T07:57:20;19.40;95.30
57058;DHT22;55017;52.848;6.748;2022-09-02T07:59:45;19.50;94.70
57058;DHT22;55017;52.848;6.748;2022-09-02T08:02:12;19.70;93.90
57058;DHT22;55017;52.848;6.748;2022-09-02T08:04:39;19.80;92.50
57058;DHT22;55017;52.848;6.748;2022-09-02T08:07:05;20.10;92.90
57058;DHT22;55017;52.848;6.748;2022-09-02T08:09:31;20.30;91.50
57058;DHT22;55017;52.848;6.748;2022-09-02T08:11:56;20.30;90.20
57058;DHT22;55017;52.848;6.748;2022-09-02T08:14:25;20.50;89.70
57058;DHT22;55017;52.848;6.748;2022-09-02T08:16:54;20.60;86.10
57058;DHT22;55017;52.848;6.748;2022-09-02T08:19:21;20.70;86.60
57058;DHT22;55017;52.848;6.748;2022-09-02T08:21:47;20.90;85.40
57058;DHT22;55017;52.848;6.748;2022-09-02T08:24:12;21.10;83.20
57058;DHT22;55017;52.848;6.748;2022-09-02T08:26:38;21.10;81.40
57058;DHT22;55017;52.848;6.748;2022-09-02T08:29:04;21.30;80.70
57058;DHT22;55017;52.848;6.748;2022-09-02T08:31:31;21.30;78.00
57058;DHT22;55017;52.848;6.748;2022-09-02T08:33:57;21.60;76.40
57058;DHT22;55017;52.848;6.748;2022-09-02T08:36:23;21.60;74.10
57058;DHT22;55017;52.848;6.748;2022-09-02T08:38:49;21.80;74.20
57058;DHT22;55017;52.848;6.748;2022-09-02T08:41:23;21.90;73.20
57058;DHT22;55017;52.848;6.748;2022-09-02T08:43:51;22.00;72.00
57058;DHT22;55017;52.848;6.748;2022-09-02T08:46:20;22.10;71.40
57058;DHT22;55017;52.848;6.748;2022-09-02T08:48:57;22.30;70.90
57058;DHT22;55017;52.848;6.748;2022-09-02T08:51:43;22.40;69.90
57058;DHT22;55017;52.848;6.748;2022-09-02T08:57:00;22.60;68.20
57058;DHT22;55017;52.848;6.748;2022-09-02T08:59:26;22.80;68.00
57058;DHT22;55017;52.848;6.748;2022-09-02T09:04:57;23.00;63.20
57058;DHT22;55017;52.848;6.748;2022-09-02T09:07:35;23.10;61.90
57058;DHT22;55017;52.848;6.748;2022-09-02T09:10:11;23.20;62.50
57058;DHT22;55017;52.848;6.748;2022-09-02T09:13:00;23.40;63.70
57058;DHT22;55017;52.848;6.748;2022-09-02T09:18:43;23.80;59.70
57058;DHT22;55017;52.848;6.748;2022-09-02T09:21:12;23.90;60.20
57058;DHT22;55017;52.848;6.748;2022-09-02T09:23:39;23.80;58.90
57058;DHT22;55017;52.848;6.748;2022-09-02T09:26:13;24.00;60.10
57058;DHT22;55017;52.848;6.748;2022-09-02T09:28:47;24.20;58.90
57058;DHT22;55017;52.848;6.748;2022-09-02T09:31:16;24.30;57.50
57058;DHT22;55017;52.848;6.748;2022-09-02T09:34:06;24.40;57.00
57058;DHT22;55017;52.848;6.748;2022-09-02T09:39:24;24.50;55.30
57058;DHT22;55017;52.848;6.748;2022-09-02T09:42:01;24.60;56.40
57058;DHT22;55017;52.848;6.748;2022-09-02T09:44:39;24.80;57.10
57058;DHT22;55017;52.848;6.748;2022-09-02T09:47:22;24.90;51.20
57058;DHT22;55017;52.848;6.748;2022-09-02T09:52:28;24.90;52.00
57058;DHT22;55017;52.848;6.748;2022-09-02T09:55:13;25.00;52.00
57058;DHT22;55017;52.848;6.748;2022-09-02T09:57:41;25.00;51.60
57058;DHT22;55017;52.848;6.748;2022-09-02T10:00:31;25.00;50.40
57058;DHT22;55017;52.848;6.748;2022-09-02T10:03:04;24.90;50.20
57058;DHT22;55017;52.848;6.748;2022-09-02T10:08:01;25.10;49.00
57058;DHT22;55017;52.848;6.748;2022-09-02T10:10:29;25.30;49.70
57058;DHT22;55017;52.848;6.748;2022-09-02T10:12:59;25.40;48.30
57058;DHT22;55017;52.848;6.748;2022-09-02T10:15:48;25.20;47.20
57058;DHT22;55017;52.848;6.748;2022-09-02T10:18:43;25.30;48.00
57058;DHT22;55017;52.848;6.748;2022-09-02T10:21:39;25.50;46.60
57058;DHT22;55017;52.848;6.748;2022-09-02T10:26:49;25.70;46.50
57058;DHT22;55017;52.848;6.748;2022-09-02T10:32:03;26.00;47.10
57058;DHT22;55017;52.848;6.748;2022-09-02T10:37:19;26.40;46.30
57058;DHT22;55017;52.848;6.748;2022-09-02T10:40:08;26.50;45.10
57058;DHT22;55017;52.848;6.748;2022-09-02T10:45:52;26.50;43.80
57058;DHT22;55017;52.848;6.748;2022-09-02T10:56:53;26.90;44.00
57058;DHT22;55017;52.848;6.748;2022-09-02T11:02:12;27.10;43.40
57058;DHT22;55017;52.848;6.748;2022-09-02T11:07:07;27.30;43.20
57058;DHT22;55017;52.848;6.748;2022-09-02T11:10:22;27.40;42.10
57058;DHT22;55017;52.848;6.748;2022-09-02T11:12:30;27.50;42.90
57058;DHT22;55017;52.848;6.748;2022-09-02T11:15:05;27.50;41.40
57058;DHT22;55017;52.848;6.748;2022-09-02T11:20:47;27.30;41.10
57058;DHT22;55017;52.848;6.748;2022-09-02T11:25:57;27.40;40.80
57058;DHT22;55017;52.848;6.748;2022-09-02T11:31:31;27.10;40.90
57058;DHT22;55017;52.848;6.748;2022-09-02T11:37:14;27.30;42.30
57058;DHT22;55017;52.848;6.748;2022-09-02T11:40:02;27.30;40.70
57058;DHT22;55017;52.848;6.748;2022-09-02T11:42:44;27.20;41.00
57058;DHT22;55017;52.848;6.748;2022-09-02T11:45:21;27.20;40.50
57058;DHT22;55017;52.848;6.748;2022-09-02T11:50:45;27.30;40.90
57058;DHT22;55017;52.848;6.748;2022-09-02T11:53:33;27.30;40.00
57058;DHT22;55017;52.848;6.748;2022-09-02T11:56:15;27.30;40.30
57058;DHT22;55017;52.848;6.748;2022-09-02T11:58:47;27.40;40.10
57058;DHT22;55017;52.848;6.748;2022-09-02T12:03:45;27.50;39.90
57058;DHT22;55017;52.848;6.748;2022-09-02T12:06:16;27.50;39.00
57058;DHT22;55017;52.848;6.748;2022-09-02T12:14:05;27.70;38.00
57058;DHT22;55017;52.848;6.748;2022-09-02T12:16:39;27.60;38.70
57058;DHT22;55017;52.848;6.748;2022-09-02T12:21:35;28.00;39.50
57058;DHT22;55017;52.848;6.748;2022-09-02T12:24:07;28.10;39.00
57058;DHT22;55017;52.848;6.748;2022-09-02T12:31:47;27.80;38.60
57058;DHT22;55017;52.848;6.748;2022-09-02T12:36:47;27.90;38.90
57058;DHT22;55017;52.848;6.748;2022-09-02T12:41:54;28.20;37.40
57058;DHT22;55017;52.848;6.748;2022-09-02T12:44:45;28.00;37.70
57058;DHT22;55017;52.848;6.748;2022-09-02T12:50:04;28.30;39.20
57058;DHT22;55017;52.848;6.748;2022-09-02T12:55:22;28.60;37.50
57058;DHT22;55017;52.848;6.748;2022-09-02T12:57:51;28.70;36.60
57058;DHT22;55017;52.848;6.748;2022-09-02T13:00:30;29.00;37.30
57058;DHT22;55017;52.848;6.748;2022-09-02T13:03:46;30.20;35.40
57058;DHT22;55017;52.848;6.748;2022-09-02T13:12:34;36.20;31.10
57058;DHT22;55017;52.848;6.748;2022-09-02T13:34:46;38.80;27.90
57058;DHT22;55017;52.848;6.748;2022-09-02T13:37:43;38.20;28.30
57058;DHT22;55017;52.848;6.748;2022-09-02T13:40:32;38.80;28.60
57058;DHT22;55017;52.848;6.748;2022-09-02T13:43:00;39.10;28.50
57058;DHT22;55017;52.848;6.748;2022-09-02T13:45:33;38.90;27.90
57058;DHT22;55017;52.848;6.748;2022-09-02T13:48:36;38.10;28.30
57058;DHT22;55017;52.848;6.748;2022-09-02T13:51:11;38.60;29.80
57058;DHT22;55017;52.848;6.748;2022-09-02T13:53:40;38.90;28.10
57058;DHT22;55017;52.848;6.748;2022-09-02T13:56:09;38.90;28.90
57058;DHT22;55017;52.848;6.748;2022-09-02T13:58:37;39.20;29.40
57058;DHT22;55017;52.848;6.748;2022-09-02T14:03:51;39.60;28.40
57058;DHT22;55017;52.848;6.748;2022-09-02T14:06:19;39.60;28.20
57058;DHT22;55017;52.848;6.748;2022-09-02T14:08:49;39.60;27.80
57058;DHT22;55017;52.848;6.748;2022-09-02T14:11:16;39.10;28.80
57058;DHT22;55017;52.848;6.748;2022-09-02T14:13:46;37.30;29.10
57058;DHT22;55017;52.848;6.748;2022-09-02T14:16:30;36.30;30.00
57058;DHT22;55017;52.848;6.748;2022-09-02T14:19:11;36.20;29.90
57058;DHT22;55017;52.848;6.748;2022-09-02T14:21:52;36.20;29.60
57058;DHT22;55017;52.848;6.748;2022-09-02T14:24:44;36.30;29.60
57058;DHT22;55017;52.848;6.748;2022-09-02T14:27:17;36.00;30.00
57058;DHT22;55017;52.848;6.748;2022-09-02T14:29:44;35.70;29.20
57058;DHT22;55017;52.848;6.748;2022-09-02T14:32:26;35.60;30.40
57058;DHT22;55017;52.848;6.748;2022-09-02T14:35:19;34.70;30.50
57058;DHT22;55017;52.848;6.748;2022-09-02T14:37:59;34.50;32.40
57058;DHT22;55017;52.848;6.748;2022-09-02T14:40:38;34.60;32.00
57058;DHT22;55017;52.848;6.748;2022-09-02T14:43:12;34.50;34.90
57058;DHT22;55017;52.848;6.748;2022-09-02T14:45:48;34.20;34.10
57058;DHT22;55017;52.848;6.748;2022-09-02T14:48:24;33.70;33.80
57058;DHT22;55017;52.848;6.748;2022-09-02T14:51:03;32.30;33.80
57058;DHT22;55017;52.848;6.748;2022-09-02T14:53:30;30.90;35.40
57058;DHT22;55017;52.848;6.748;2022-09-02T14:55:56;30.10;38.20
57058;DHT22;55017;52.848;6.748;2022-09-02T14:58:24;29.60;38.40
57058;DHT22;55017;52.848;6.748;2022-09-02T15:00:51;29.00;36.60
57058;DHT22;55017;52.848;6.748;2022-09-02T15:03:20;28.70;39.70
57058;DHT22;55017;52.848;6.748;2022-09-02T15:05:47;28.30;39.60
57058;DHT22;55017;52.848;6.748;2022-09-02T15:08:13;27.90;40.10
57058;DHT22;55017;52.848;6.748;2022-09-02T15:10:40;27.30;39.30
57058;DHT22;55017;52.848;6.748;2022-09-02T15:13:10;27.20;40.00
57058;DHT22;55017;52.848;6.748;2022-09-02T15:15:38;26.90;40.20
57058;DHT22;55017;52.848;6.748;2022-09-02T15:18:03;26.60;40.80
57058;DHT22;55017;52.848;6.748;2022-09-02T15:20:30;26.40;42.30
57058;DHT22;55017;52.848;6.748;2022-09-02T15:22:56;26.10;41.80
57058;DHT22;55017;52.848;6.748;2022-09-02T15:25:22;26.00;41.30
57058;DHT22;55017;52.848;6.748;2022-09-02T15:27:47;25.90;42.00
57058;DHT22;55017;52.848;6.748;2022-09-02T15:30:13;25.70;42.60
57058;DHT22;55017;52.848;6.748;2022-09-02T15:32:39;25.70;42.70
57058;DHT22;55017;52.848;6.748;2022-09-02T15:35:06;25.60;41.60
57058;DHT22;55017;52.848;6.748;2022-09-02T15:37:32;25.60;42.70
57058;DHT22;55017;52.848;6.748;2022-09-02T15:40:02;25.50;41.10
57058;DHT22;55017;52.848;6.748;2022-09-02T15:42:28;25.50;41.80
57058;DHT22;55017;52.848;6.748;2022-09-02T15:44:54;25.40;42.60
57058;DHT22;55017;52.848;6.748;2022-09-02T15:47:19;25.30;45.10
57058;DHT22;55017;52.848;6.748;2022-09-02T15:49:45;25.30;42.50
57058;DHT22;55017;52.848;6.748;2022-09-02T15:52:10;25.30;42.00
57058;DHT22;55017;52.848;6.748;2022-09-02T15:54:36;25.30;41.80
57058;DHT22;55017;52.848;6.748;2022-09-02T15:57:02;25.30;41.70
57058;DHT22;55017;52.848;6.748;2022-09-02T15:59:28;25.30;41.10
57058;DHT22;55017;52.848;6.748;2022-09-02T16:01:56;25.30;41.20
57058;DHT22;55017;52.848;6.748;2022-09-02T16:04:25;25.30;42.00
57058;DHT22;55017;52.848;6.748;2022-09-02T16:06:51;25.30;41.90
57058;DHT22;55017;52.848;6.748;2022-09-02T16:09:17;25.30;41.60
57058;DHT22;55017;52.848;6.748;2022-09-02T16:11:45;25.40;41.50
57058;DHT22;55017;52.848;6.748;2022-09-02T16:14:11;25.30;43.10
57058;DHT22;55017;52.848;6.748;2022-09-02T16:16:38;25.20;44.60
57058;DHT22;55017;52.848;6.748;2022-09-02T16:19:04;25.10;43.40
57058;DHT22;55017;52.848;6.748;2022-09-02T16:21:31;25.20;43.80
57058;DHT22;55017;52.848;6.748;2022-09-02T16:23:57;25.10;43.50
57058;DHT22;55017;52.848;6.748;2022-09-02T16:26:27;25.00;43.50
57058;DHT22;55017;52.848;6.748;2022-09-02T16:29:02;25.00;44.40
57058;DHT22;55017;52.848;6.748;2022-09-02T16:31:29;24.80;45.20
57058;DHT22;55017;52.848;6.748;2022-09-02T16:33:59;24.80;46.20
57058;DHT22;55017;52.848;6.748;2022-09-02T16:36:26;24.80;46.00
57058;DHT22;55017;52.848;6.748;2022-09-02T16:38:52;24.80;45.90
57058;DHT22;55017;52.848;6.748;2022-09-02T16:41:37;24.90;46.30
57058;DHT22;55017;52.848;6.748;2022-09-02T16:44:18;24.80;45.90
57058;DHT22;55017;52.848;6.748;2022-09-02T16:46:45;24.70;46.10
57058;DHT22;55017;52.848;6.748;2022-09-02T16:49:13;24.60;45.90
57058;DHT22;55017;52.848;6.748;2022-09-02T16:51:43;24.60;46.10
57058;DHT22;55017;52.848;6.748;2022-09-02T16:54:09;24.60;46.20
57058;DHT22;55017;52.848;6.748;2022-09-02T16:56:35;24.60;46.70
57058;DHT22;55017;52.848;6.748;2022-09-02T16:59:04;24.60;46.10
57058;DHT22;55017;52.848;6.748;2022-09-02T17:01:31;24.50;45.60
57058;DHT22;55017;52.848;6.748;2022-09-02T17:03:56;24.50;46.80
57058;DHT22;55017;52.848;6.748;2022-09-02T17:06:24;24.50;47.10
57058;DHT22;55017;52.848;6.748;2022-09-02T17:08:50;24.50;46.90
57058;DHT22;55017;52.848;6.748;2022-09-02T17:11:21;24.40;46.10
57058;DHT22;55017;52.848;6.748;2022-09-02T17:13:50;24.40;46.70
57058;DHT22;55017;52.848;6.748;2022-09-02T17:16:16;24.30;47.10
57058;DHT22;55017;52.848;6.748;2022-09-02T17:18:42;24.30;46.90
57058;DHT22;55017;52.848;6.748;2022-09-02T17:21:18;24.20;47.20
57058;DHT22;55017;52.848;6.748;2022-09-02T17:23:44;24.20;48.10
57058;DHT22;55017;52.848;6.748;2022-09-02T17:26:11;24.20;48.40
57058;DHT22;55017;52.848;6.748;2022-09-02T17:28:36;24.10;49.90
57058;DHT22;55017;52.848;6.748;2022-09-02T17:31:19;24.00;49.60
57058;DHT22;55017;52.848;6.748;2022-09-02T17:33:46;24.00;48.20
57058;DHT22;55017;52.848;6.748;2022-09-02T17:36:13;23.90;48.70